Time;durP1;ratioP1;P1;durP2;ratioP2;P2;SDS_P1;SDS_P2;PMS_P1;PMS_P2;Temp;Humidity;BMP_temperature;BMP_pressure;BME280_temperature;BME280_humidity;BME280_pressure;Samples;Min_cycle;Max_cycle;Signal;HPM_P1;HPM_P2
2022/09/24 00:01:50;;;;;;;1.80;1.70;;;;;;;12.62;64.27;98555.75;5092351;28;20179;-59
2022/09/24 00:04:16;;;;;;;1.70;1.60;;;;;;;12.61;64.01;98554.91;5092020;28;20179;-58
2022/09/24 00:06:45;;;;;;;1.40;1.40;;;;;;;12.50;64.39;98560.09;5091896;28;20179;-58
2022/09/24 00:09:17;;;;;;;1.92;1.83;;;;;;;12.36;65.28;98559.44;5090403;28;20176;-58
2022/09/24 00:11:44;;;;;;;1.80;1.70;;;;;;;12.20;66.55;98553.72;5091641;28;20214;-58
2022/09/24 00:14:10;;;;;;;1.80;1.70;;;;;;;12.09;66.94;98553.66;5091568;28;20175;-58
2022/09/24 00:16:38;;;;;;;2.58;1.75;;;;;;;12.00;67.59;98549.97;5091644;28;20196;-58
2022/09/24 00:19:04;;;;;;;2.03;1.92;;;;;;;12.00;66.83;98543.94;5091461;28;20682;-59
2022/09/24 00:21:33;;;;;;;2.17;2.08;;;;;;;11.97;67.39;98539.78;5091838;28;20251;-59
2022/09/24 00:24:07;;;;;;;1.88;1.70;;;;;;;11.95;67.39;98540.84;5091731;28;20625;-58
2022/09/24 00:26:48;;;;;;;2.10;1.90;;;;;;;11.98;67.74;98543.22;5091640;28;20249;-58
2022/09/24 00:29:21;;;;;;;4.00;1.85;;;;;;;11.95;67.76;98543.44;5091559;28;20161;-59
2022/09/24 00:31:47;;;;;;;2.40;2.25;;;;;;;11.88;68.18;98531.84;5091542;28;20173;-58
2022/09/24 00:34:13;;;;;;;3.80;1.88;;;;;;;11.88;68.23;98537.88;5091468;28;20169;-58
2022/09/24 00:36:38;;;;;;;1.73;1.63;;;;;;;11.97;67.96;98541.59;5091330;28;20594;-58
2022/09/24 00:39:05;;;;;;;1.80;1.70;;;;;;;12.00;67.51;98542.19;5091566;28;20218;-59
2022/09/24 00:41:35;;;;;;;2.35;1.80;;;;;;;11.94;67.64;98537.44;5092632;28;20165;-58
2022/09/24 00:44:44;;;;;;;1.88;1.77;;;;;;;11.96;67.65;98540.75;5094941;28;20160;-58
2022/09/24 00:47:34;;;;;;;2.08;1.98;;;;;;;11.86;67.97;98538.94;5094917;28;20157;-58
2022/09/24 00:50:06;;;;;;;1.90;1.80;;;;;;;11.83;68.30;98529.59;5089815;28;20267;-58
2022/09/24 00:52:37;;;;;;;1.73;1.63;;;;;;;11.90;67.92;98542.97;5094852;28;20160;-58
2022/09/24 00:55:02;;;;;;;2.88;2.13;;;;;;;11.85;68.21;98532.09;5093463;28;20173;-58
2022/09/24 00:57:28;;;;;;;5.03;2.00;;;;;;;11.82;68.33;98527.94;5095240;28;20176;-58
2022/09/24 00:59:54;;;;;;;1.90;1.80;;;;;;;11.82;68.19;98534.88;5094702;28;20602;-58
2022/09/24 01:02:20;;;;;;;1.70;1.60;;;;;;;11.86;67.30;98531.16;5094874;28;20664;-58
2022/09/24 01:04:45;;;;;;;2.00;1.90;;;;;;;11.81;67.51;98530.66;5093392;28;20692;-58
2022/09/24 01:07:11;;;;;;;1.90;1.80;;;;;;;11.70;68.30;98543.53;5094547;28;20165;-58
2022/09/24 01:09:36;;;;;;;3.45;2.22;;;;;;;11.69;68.36;98541.88;5094473;28;20180;-58
2022/09/24 01:12:13;;;;;;;1.58;1.50;;;;;;;11.70;68.32;98528.81;5094327;28;20673;-57
2022/09/24 01:15:10;;;;;;;2.10;2.00;;;;;;;11.64;68.77;98533.59;5094816;28;20157;-59
2022/09/24 01:17:39;;;;;;;2.00;1.90;;;;;;;11.56;69.07;98526.34;5094600;28;20168;-58
2022/09/24 01:20:31;;;;;;;1.75;1.65;;;;;;;11.55;69.52;98527.28;5094130;28;20195;-58
2022/09/24 01:23:15;;;;;;;2.28;2.17;;;;;;;11.48;69.54;98538.16;5094340;28;20168;-58
2022/09/24 01:26:05;;;;;;;1.90;1.80;;;;;;;11.45;70.06;98531.44;5094089;28;20763;-58
2022/09/24 01:28:40;;;;;;;1.70;1.60;;;;;;;11.37;70.00;98541.53;5094284;28;20261;-58
2022/09/24 01:31:22;;;;;;;1.77;1.55;;;;;;;11.31;70.06;98534.19;5094103;28;20179;-59
2022/09/24 01:33:52;;;;;;;2.00;1.90;;;;;;;11.28;70.69;98528.38;5094102;28;20172;-58
2022/09/24 01:36:20;;;;;;;2.28;2.08;;;;;;;11.27;70.91;98535.31;5094103;28;20594;-58
2022/09/24 01:38:48;;;;;;;1.90;1.70;;;;;;;11.28;71.04;98539.59;5094026;28;20179;-59
2022/09/24 01:41:16;;;;;;;1.92;1.67;;;;;;;11.34;70.93;98540.91;5093887;28;20173;-59
2022/09/24 01:43:42;;;;;;;1.95;1.85;;;;;;;11.40;70.70;98533.56;5094049;28;20231;-58
2022/09/24 01:46:09;;;;;;;1.90;1.80;;;;;;;11.43;70.35;98540.28;5093742;28;20176;-58
2022/09/24 01:48:37;;;;;;;1.73;1.63;;;;;;;11.51;70.17;98548.34;5093727;28;20208;-58
2022/09/24 01:51:13;;;;;;;1.95;1.85;;;;;;;11.50;69.74;98551.88;5093674;28;20659;-58
2022/09/24 01:53:48;;;;;;;1.80;1.70;;;;;;;11.59;69.28;98553.81;5093605;28;20168;-58
2022/09/24 01:56:24;;;;;;;1.90;1.80;;;;;;;11.56;69.74;98547.06;5093862;28;20192;-58
2022/09/24 01:59:05;;;;;;;1.88;1.77;;;;;;;11.45;69.93;98548.75;5093639;28;20156;-58
2022/09/24 02:01:40;;;;;;;1.88;1.77;;;;;;;11.40;70.15;98551.69;5093653;28;20160;-58
2022/09/24 02:04:15;;;;;;;1.67;1.58;;;;;;;11.32;70.56;98542.78;5093785;28;20171;-58
2022/09/24 02:06:54;;;;;;;1.90;1.80;;;;;;;11.31;70.67;98547.13;5093282;28;20596;-59
2022/09/24 02:09:33;;;;;;;1.95;1.85;;;;;;;11.29;70.86;98545.56;5093473;28;20672;-59
2022/09/24 02:12:05;;;;;;;2.10;2.00;;;;;;;11.25;70.83;98550.13;5093372;28;20200;-59
2022/09/24 02:14:38;;;;;;;1.60;1.58;;;;;;;11.24;70.15;98547.66;5093405;28;20575;-59
2022/09/24 02:17:05;;;;;;;3.20;1.90;;;;;;;11.24;70.32;98545.06;5093099;28;20185;-59
2022/09/24 02:19:35;;;;;;;5.32;2.30;;;;;;;11.27;70.52;98550.03;5093046;28;20235;-58
2022/09/24 02:22:01;;;;;;;3.53;1.63;;;;;;;11.31;70.13;98543.69;5092120;28;20207;-59
2022/09/24 02:24:42;;;;;;;1.92;1.83;;;;;;;11.24;70.30;98556.25;5093080;28;20173;-59
2022/09/24 02:27:07;;;;;;;2.15;2.00;;;;;;;11.31;70.01;98561.81;5092949;28;20160;-58
2022/09/24 02:29:33;;;;;;;1.98;1.88;;;;;;;11.22;70.25;98554.72;5092947;28;20177;-59
2022/09/24 02:31:59;;;;;;;2.45;2.05;;;;;;;11.21;70.09;98561.63;5093041;28;20169;-59
2022/09/24 02:34:31;;;;;;;2.30;2.20;;;;;;;11.17;70.44;98567.13;5093021;28;20172;-59
2022/09/24 02:37:05;;;;;;;2.05;1.95;;;;;;;11.07;71.32;98568.69;5092836;28;20677;-59
2022/09/24 02:39:30;;;;;;;2.28;2.17;;;;;;;11.03;71.46;98575.84;5093088;28;20297;-59
2022/09/24 02:41:58;;;;;;;2.00;1.80;;;;;;;11.01;71.26;98563.94;5092851;28;20267;-59
2022/09/24 02:44:24;;;;;;;2.95;2.10;;;;;;;10.99;71.59;98568.38;5092978;28;20187;-59
2022/09/24 02:46:49;;;;;;;2.25;2.08;;;;;;;10.83;72.06;98560.00;5092672;28;20573;-59
2022/09/24 02:49:15;;;;;;;1.80;1.70;;;;;;;10.80;72.13;98562.81;5092625;28;20177;-58
2022/09/24 02:51:42;;;;;;;1.90;1.80;;;;;;;10.82;72.46;98564.34;5092612;28;20616;-59
2022/09/24 02:54:07;;;;;;;1.70;1.70;;;;;;;10.75;72.69;98562.28;5092698;28;20180;-59
2022/09/24 02:56:33;;;;;;;1.83;1.73;;;;;;;10.77;72.85;98570.75;5092498;28;20203;-59
2022/09/24 02:59:01;;;;;;;2.30;2.20;;;;;;;10.69;72.67;98552.34;5092487;28;20554;-58
2022/09/24 03:01:27;;;;;;;2.13;2.03;;;;;;;10.61;73.36;98562.34;5092538;28;20184;-58
2022/09/24 03:03:52;;;;;;;1.85;1.75;;;;;;;10.57;73.70;98563.50;5091770;28;20168;-59
2022/09/24 03:06:18;;;;;;;2.10;2.00;;;;;;;10.59;73.75;98565.06;5092376;28;20204;-59
2022/09/24 03:08:43;;;;;;;1.92;1.83;;;;;;;10.56;73.23;98574.78;5092675;28;20173;-59
2022/09/24 03:11:10;;;;;;;2.58;2.20;;;;;;;10.54;73.63;98584.38;5092217;28;20810;-59
2022/09/24 03:13:39;;;;;;;3.17;2.22;;;;;;;10.52;73.69;98575.91;5092276;28;20179;-59
2022/09/24 03:16:06;;;;;;;1.98;1.88;;;;;;;10.46;74.32;98576.31;5092217;28;20253;-59
2022/09/24 03:18:32;;;;;;;2.00;1.90;;;;;;;10.49;74.28;98570.91;5092043;28;20172;-58
2022/09/24 03:21:03;;;;;;;2.10;2.00;;;;;;;10.45;75.14;98583.22;5092276;28;20165;-59
2022/09/24 03:23:30;;;;;;;2.25;2.15;;;;;;;10.51;74.06;98593.16;5092148;28;20171;-59
2022/09/24 03:25:56;;;;;;;1.92;1.83;;;;;;;10.73;72.89;98608.97;5092130;28;20172;-60
2022/09/24 03:28:21;;;;;;;2.55;2.00;;;;;;;10.86;71.87;98607.22;5092102;28;20309;-59
2022/09/24 03:30:59;;;;;;;2.00;1.90;;;;;;;10.97;71.96;98611.69;5092093;28;20666;-59
2022/09/24 03:33:30;;;;;;;3.45;2.03;;;;;;;11.02;71.72;98612.19;5092100;28;20161;-59
2022/09/24 03:35:57;;;;;;;2.33;2.22;;;;;;;10.99;72.51;98613.25;5092022;28;20231;-60
2022/09/24 03:38:23;;;;;;;4.10;2.40;;;;;;;11.03;72.77;98613.88;5092032;28;20629;-59
2022/09/24 03:40:49;;;;;;;2.60;1.95;;;;;;;11.12;71.48;98618.41;5091982;28;20184;-59
2022/09/24 03:43:14;;;;;;;2.55;2.35;;;;;;;11.20;70.45;98621.34;5092218;28;20176;-59
2022/09/24 03:45:40;;;;;;;2.83;2.03;;;;;;;11.22;70.65;98619.47;5091980;28;20641;-60
2022/09/24 03:48:05;;;;;;;2.22;2.13;;;;;;;11.12;71.98;98624.44;5091871;28;20177;-59
2022/09/24 03:50:34;;;;;;;2.45;2.15;;;;;;;11.02;71.97;98618.19;5091903;28;20196;-60
2022/09/24 03:53:00;;;;;;;5.25;2.50;;;;;;;11.11;72.67;98625.38;5091869;28;20191;-59
2022/09/24 03:55:25;;;;;;;8.13;2.83;;;;;;;11.17;73.17;98624.13;5091716;28;20610;-60
2022/09/24 03:57:50;;;;;;;9.15;3.30;;;;;;;11.29;73.25;98628.47;5091819;28;20221;-59
2022/09/24 04:00:16;;;;;;;3.45;3.15;;;;;;;11.26;73.68;98629.50;5091832;28;20172;-59
2022/09/24 04:02:41;;;;;;;3.47;2.55;;;;;;;11.23;74.47;98621.09;5091869;28;20168;-60
2022/09/24 04:05:07;;;;;;;3.42;3.10;;;;;;;11.05;75.57;98630.13;5091772;28;20246;-59
2022/09/24 04:07:33;;;;;;;4.93;2.70;;;;;;;11.08;75.87;98641.09;5091801;28;20225;-60
2022/09/24 04:09:58;;;;;;;2.97;2.78;;;;;;;11.07;76.17;98636.84;5091765;28;20642;-60
2022/09/24 04:12:23;;;;;;;4.28;3.17;;;;;;;10.91;76.66;98640.56;5091591;28;20188;-59
2022/09/24 04:14:49;;;;;;;3.72;3.15;;;;;;;10.72;78.84;98650.47;5091796;28;20642;-60
2022/09/24 04:17:16;;;;;;;4.80;3.40;;;;;;;10.67;78.71;98650.75;5095450;28;20196;-59
2022/09/24 04:19:42;;;;;;;4.35;3.22;;;;;;;10.53;80.18;98652.59;5094078;28;20184;-59
2022/09/24 04:22:07;;;;;;;6.00;2.97;;;;;;;10.42;80.67;98648.09;5095887;28;20539;-60
2022/09/24 04:24:33;;;;;;;3.10;2.90;;;;;;;10.49;80.49;98648.53;5094307;28;20242;-60
2022/09/24 04:26:58;;;;;;;2.70;2.50;;;;;;;10.64;79.37;98658.75;5095314;28;20213;-59
2022/09/24 04:29:23;;;;;;;2.75;2.55;;;;;;;10.70;78.75;98657.50;5095298;28;20173;-60
2022/09/24 04:31:49;;;;;;;2.40;2.20;;;;;;;10.81;75.83;98655.84;5095216;28;20179;-59
2022/09/24 04:34:14;;;;;;;14.35;4.80;;;;;;;10.97;72.68;98659.09;5095200;28;20173;-59
2022/09/24 04:36:40;;;;;;;2.00;1.90;;;;;;;11.03;71.68;98653.50;5095100;28;20196;-59
2022/09/24 04:39:05;;;;;;;2.30;2.20;;;;;;;11.12;71.44;98662.44;5095158;28;20168;-57
2022/09/24 04:41:30;;;;;;;2.42;2.22;;;;;;;11.16;71.03;98663.91;5095184;28;20183;-60
2022/09/24 04:43:57;;;;;;;2.00;1.90;;;;;;;11.26;70.14;98675.31;5095156;28;20170;-58
2022/09/24 04:46:22;;;;;;;2.15;1.95;;;;;;;11.25;70.36;98665.84;5095019;28;20645;-57
2022/09/24 04:48:48;;;;;;;1.95;1.85;;;;;;;11.26;69.93;98668.34;5095008;28;20175;-58
2022/09/24 04:51:16;;;;;;;2.20;2.10;;;;;;;11.26;69.91;98675.31;5094884;28;20645;-60
2022/09/24 04:53:41;;;;;;;2.10;2.00;;;;;;;11.17;70.38;98674.16;5095089;28;20607;-58
2022/09/24 04:56:10;;;;;;;5.22;2.17;;;;;;;11.18;70.59;98667.19;5094745;28;20704;-58
2022/09/24 04:58:37;;;;;;;1.83;1.73;;;;;;;11.25;69.77;98669.28;5094950;28;20180;-59
2022/09/24 05:01:02;;;;;;;2.78;2.10;;;;;;;11.29;70.12;98660.38;5094590;28;20221;-59
2022/09/24 05:03:28;;;;;;;2.10;2.00;;;;;;;11.31;70.19;98660.25;5094869;28;20694;-58
2022/09/24 05:05:54;;;;;;;1.95;1.85;;;;;;;11.36;69.22;98658.19;5094627;28;20169;-58
2022/09/24 05:08:19;;;;;;;1.88;1.77;;;;;;;11.37;69.45;98667.66;5094844;28;20179;-58
2022/09/24 05:10:45;;;;;;;2.33;2.20;;;;;;;11.37;69.54;98659.88;5094453;28;20784;-58
2022/09/24 05:13:10;;;;;;;2.10;2.00;;;;;;;11.40;69.78;98659.66;5094373;28;20172;-58
2022/09/24 05:15:36;;;;;;;2.08;1.90;;;;;;;11.48;68.84;98658.19;5094916;28;20200;-59
2022/09/24 05:18:01;;;;;;;3.15;2.15;;;;;;;11.49;69.23;98665.03;5094382;28;20165;-59
2022/09/24 05:20:27;;;;;;;1.60;1.60;;;;;;;11.49;69.35;98662.44;5094220;28;20188;-58
2022/09/24 05:22:52;;;;;;;1.88;1.77;;;;;;;11.61;68.51;98673.78;5094556;28;20175;-58
2022/09/24 05:25:20;;;;;;;2.67;2.50;;;;;;;11.60;68.60;98664.31;5094233;28;20183;-58
2022/09/24 05:27:51;;;;;;;2.17;1.95;;;;;;;11.64;68.33;98671.81;5093547;28;20645;-58
2022/09/24 05:30:17;;;;;;;2.00;1.90;;;;;;;11.69;67.86;98672.31;5094209;28;20179;-59
2022/09/24 05:32:43;;;;;;;1.85;1.75;;;;;;;11.72;68.18;98666.09;5094112;28;20165;-59
2022/09/24 05:35:09;;;;;;;1.90;1.80;;;;;;;11.79;68.20;98677.72;5094106;28;20168;-60
2022/09/24 05:37:36;;;;;;;2.00;1.90;;;;;;;11.85;67.56;98672.09;5093862;28;20203;-59
2022/09/24 05:42:48;;;;;;;2.00;1.80;;;;;;;11.96;66.98;98672.19;5094288;28;20242;-59
2022/09/24 05:45:16;;;;;;;1.80;1.70;;;;;;;12.03;67.03;98679.41;5093864;28;20223;-58
2022/09/24 05:47:44;;;;;;;2.22;2.13;;;;;;;12.09;66.57;98681.56;5093999;28;20226;-59
2022/09/24 05:50:09;;;;;;;1.90;1.80;;;;;;;12.06;66.17;98686.13;5094074;28;20168;-59
2022/09/24 05:52:35;;;;;;;1.80;1.70;;;;;;;12.13;66.33;98687.38;5093881;28;20222;-59
2022/09/24 05:55:00;;;;;;;1.95;1.85;;;;;;;12.21;65.76;98685.06;5093903;28;20623;-59
2022/09/24 05:57:25;;;;;;;1.70;1.60;;;;;;;12.30;65.66;98693.03;5093515;28;20673;-59
2022/09/24 05:59:52;;;;;;;2.83;2.10;;;;;;;12.28;65.04;98688.88;5093551;28;20183;-59
2022/09/24 06:02:18;;;;;;;2.10;2.00;;;;;;;12.42;65.62;98688.75;5093421;28;20632;-59
2022/09/24 06:04:43;;;;;;;2.10;2.00;;;;;;;12.50;64.73;98692.47;5093690;28;20168;-59
2022/09/24 06:07:10;;;;;;;2.20;2.10;;;;;;;12.52;64.58;98700.09;5093723;28;20243;-58
2022/09/24 06:09:35;;;;;;;1.92;1.83;;;;;;;12.60;64.44;98708.19;5093293;28;20664;-59
2022/09/24 06:12:01;;;;;;;2.58;2.40;;;;;;;12.66;64.58;98702.56;5093162;28;20192;-59
2022/09/24 06:14:27;;;;;;;1.83;1.73;;;;;;;12.78;64.07;98707.66;5093361;28;20179;-59
2022/09/24 06:16:52;;;;;;;2.25;2.15;;;;;;;12.82;64.07;98695.28;5093382;28;20201;-59
2022/09/24 06:19:18;;;;;;;2.13;2.03;;;;;;;12.86;64.23;98705.38;5093067;28;20620;-59
2022/09/24 06:21:43;;;;;;;4.10;2.08;;;;;;;12.95;64.37;98714.25;5093407;28;20645;-59
2022/09/24 06:24:09;;;;;;;1.65;1.55;;;;;;;13.03;63.68;98702.41;5093367;28;20206;-59
2022/09/24 06:26:35;;;;;;;2.80;1.92;;;;;;;13.14;63.15;98699.84;5093075;28;20160;-59
2022/09/24 06:29:00;;;;;;;3.42;1.67;;;;;;;13.30;62.82;98704.72;5092963;28;20174;-59
2022/09/24 06:31:25;;;;;;;1.95;1.85;;;;;;;13.45;62.65;98709.59;5092846;28;20245;-57
2022/09/24 06:33:51;;;;;;;2.13;2.03;;;;;;;13.64;61.25;98711.63;5092937;28;20172;-58
2022/09/24 06:36:16;;;;;;;2.17;2.08;;;;;;;13.85;60.32;98705.63;5092778;28;20290;-59
2022/09/24 06:38:44;;;;;;;1.85;1.75;;;;;;;14.03;59.63;98706.78;5091939;28;20215;-59
2022/09/24 06:41:09;;;;;;;3.30;1.80;;;;;;;13.99;59.86;98720.16;5092797;28;20165;-59
2022/09/24 06:43:35;;;;;;;1.80;1.70;;;;;;;14.01;59.30;98713.88;5091631;28;20190;-59
2022/09/24 06:46:02;;;;;;;2.33;2.20;;;;;;;14.00;59.60;98708.81;5092956;28;20168;-57
2022/09/24 06:48:29;;;;;;;1.88;1.77;;;;;;;13.98;59.79;98714.13;5092919;28;20176;-57
2022/09/24 06:50:55;;;;;;;1.90;1.80;;;;;;;14.05;59.40;98717.09;5092612;28;20176;-57
2022/09/24 06:53:21;;;;;;;2.17;2.08;;;;;;;14.24;58.76;98720.75;5092608;28;20172;-57
2022/09/24 06:55:47;;;;;;;1.80;1.70;;;;;;;14.26;58.95;98724.06;5092713;28;20196;-57
2022/09/24 06:58:15;;;;;;;2.08;1.90;;;;;;;14.39;57.97;98723.91;5092800;28;20179;-57
2022/09/24 07:00:44;;;;;;;1.45;1.45;;;;;;;14.50;57.54;98734.31;5092461;28;20169;-57
2022/09/24 07:03:15;;;;;;;2.25;2.15;;;;;;;14.51;57.47;98733.34;5092440;28;20172;-59
2022/09/24 07:05:40;;;;;;;1.92;1.83;;;;;;;14.56;57.46;98737.28;5091107;28;20168;-57
2022/09/24 07:08:06;;;;;;;2.30;2.15;;;;;;;14.72;57.06;98731.66;5092339;28;20169;-57
2022/09/24 07:10:31;;;;;;;1.65;1.55;;;;;;;14.77;56.91;98732.13;5092230;28;20184;-57
2022/09/24 07:12:57;;;;;;;1.88;1.77;;;;;;;14.88;56.98;98727.69;5092296;28;20183;-57
2022/09/24 07:15:22;;;;;;;2.42;2.22;;;;;;;15.01;56.73;98728.38;5092137;28;20221;-57
2022/09/24 07:17:48;;;;;;;1.85;1.75;;;;;;;15.14;56.01;98736.84;5092183;28;20176;-59
2022/09/24 07:20:13;;;;;;;2.25;2.15;;;;;;;15.27;55.42;98734.06;5092134;28;20243;-57
2022/09/24 07:22:40;;;;;;;2.17;1.90;;;;;;;15.40;55.31;98730.31;5092380;28;20199;-57
2022/09/24 07:25:10;;;;;;;2.05;1.95;;;;;;;15.46;55.31;98729.00;5091945;28;20168;-57
2022/09/24 07:27:37;;;;;;;2.25;1.83;;;;;;;15.63;54.61;98725.81;5092342;28;20157;-57
2022/09/24 07:30:05;;;;;;;1.70;1.60;;;;;;;15.76;54.05;98729.88;5092067;28;20191;-57
2022/09/24 07:32:31;;;;;;;1.85;1.70;;;;;;;15.86;53.51;98728.13;5092080;28;20179;-57
2022/09/24 07:34:56;;;;;;;2.05;1.85;;;;;;;16.00;53.54;98729.56;5092050;28;20168;-57
2022/09/24 07:37:22;;;;;;;2.00;1.90;;;;;;;15.97;53.04;98724.63;5091939;28;20218;-57
2022/09/24 07:39:47;;;;;;;1.95;1.77;;;;;;;16.06;51.82;98724.66;5091892;28;20184;-57
2022/09/24 07:42:12;;;;;;;15.27;6.80;;;;;;;16.11;51.85;98726.88;5091859;28;20630;-57
2022/09/24 07:44:38;;;;;;;5.88;4.90;;;;;;;16.20;51.83;98715.66;5092171;28;20183;-57
2022/09/24 07:47:03;;;;;;;3.40;2.92;;;;;;;16.26;51.79;98707.28;5091879;28;20672;-57
2022/09/24 07:49:31;;;;;;;3.10;2.80;;;;;;;16.53;50.91;98720.56;5090516;28;20180;-57
2022/09/24 07:51:57;;;;;;;3.67;2.50;;;;;;;16.74;50.54;98729.16;5095604;28;20199;-57
2022/09/24 07:54:23;;;;;;;11.25;5.40;;;;;;;16.93;49.71;98718.69;5095952;28;20248;-57
2022/09/24 07:56:48;;;;;;;8.98;5.00;;;;;;;17.07;47.73;98715.66;5095758;28;20684;-57
2022/09/24 07:59:13;;;;;;;5.35;2.95;;;;;;;17.23;46.96;98724.63;5095760;28;20164;-57
2022/09/24 08:01:39;;;;;;;4.35;2.53;;;;;;;17.33;46.79;98719.38;5095746;28;20164;-57
2022/09/24 08:04:06;;;;;;;4.07;2.90;;;;;;;17.46;44.99;98722.56;5096084;28;20644;-58
2022/09/24 08:06:34;;;;;;;2.53;2.33;;;;;;;17.53;45.60;98710.56;5095765;28;20556;-57
2022/09/24 08:09:00;;;;;;;3.05;2.30;;;;;;;17.63;44.79;98721.84;5095702;28;20236;-57
2022/09/24 08:11:25;;;;;;;4.55;2.70;;;;;;;17.72;44.51;98721.00;5095561;28;20187;-57
2022/09/24 08:13:50;;;;;;;3.55;2.30;;;;;;;17.79;44.76;98722.88;5095547;28;20537;-58
2022/09/24 08:16:20;;;;;;;3.15;2.83;;;;;;;17.82;44.67;98717.38;5095536;28;20191;-57
2022/09/24 08:18:45;;;;;;;3.15;2.42;;;;;;;17.88;44.73;98713.34;5095636;28;20677;-57
2022/09/24 08:21:12;;;;;;;8.32;4.32;;;;;;;17.96;44.93;98714.28;5095506;28;20168;-57
2022/09/24 08:23:38;;;;;;;4.13;3.72;;;;;;;18.08;44.51;98717.56;5095469;28;20182;-57
2022/09/24 08:26:05;;;;;;;4.05;2.50;;;;;;;18.16;44.17;98720.28;5095704;28;20195;-57
2022/09/24 08:28:30;;;;;;;48.05;17.25;;;;;;;18.20;44.42;98711.16;5095293;28;20199;-57
2022/09/24 08:31:00;;;;;;;13.98;6.35;;;;;;;18.23;43.76;98711.69;5095340;28;20260;-57
2022/09/24 08:33:31;;;;;;;26.02;13.50;;;;;;;18.33;44.12;98706.44;5095400;28;20246;-57
2022/09/24 08:36:00;;;;;;;3.97;3.08;;;;;;;18.42;43.61;98706.38;5095164;28;20680;-58
2022/09/24 08:38:26;;;;;;;22.55;13.43;;;;;;;18.47;43.82;98711.22;5095272;28;20168;-58
2022/09/24 08:41:12;;;;;;;7.95;4.78;;;;;;;18.58;42.19;98709.19;5095357;28;20176;-58
2022/09/24 08:44:04;;;;;;;9.55;4.43;;;;;;;18.59;41.98;98710.03;5095267;28;20160;-58
2022/09/24 08:49:44;;;;;;;2.95;2.47;;;;;;;18.63;41.41;98703.50;5095276;28;20162;-58
2022/09/24 08:52:32;;;;;;;2.40;2.20;;;;;;;18.58;41.58;98697.88;5095155;28;20214;-58
2022/09/24 08:55:05;;;;;;;3.00;2.30;;;;;;;18.59;41.09;98692.50;5094986;28;20170;-58
2022/09/24 08:57:37;;;;;;;2.97;2.50;;;;;;;18.65;41.79;98696.34;5094896;28;20191;-58
2022/09/24 09:00:03;;;;;;;4.65;2.33;;;;;;;18.69;41.85;98684.56;5094655;28;20152;-58
2022/09/24 09:02:50;;;;;;;3.15;2.20;;;;;;;18.79;39.85;98693.19;5093869;28;20179;-58
2022/09/24 09:05:34;;;;;;;2.42;2.22;;;;;;;18.83;40.56;98691.91;5094875;28;20192;-58
2022/09/24 09:08:07;;;;;;;3.55;2.58;;;;;;;18.90;39.83;98688.56;5094746;28;20172;-58
2022/09/24 09:10:38;;;;;;;3.40;2.35;;;;;;;18.96;39.12;98694.97;5094718;28;20256;-58
2022/09/24 09:13:06;;;;;;;2.13;2.00;;;;;;;18.97;38.86;98686.13;5094440;28;20163;-58
2022/09/24 09:16:05;;;;;;;2.45;2.25;;;;;;;19.02;38.69;98694.38;5094385;28;20679;-59
2022/09/24 09:18:42;;;;;;;2.70;2.17;;;;;;;19.07;38.77;98692.94;5094432;28;20152;-58
2022/09/24 09:21:23;;;;;;;2.08;1.88;;;;;;;19.09;37.99;98688.38;5094401;28;20178;-58
2022/09/24 09:23:50;;;;;;;2.25;1.92;;;;;;;19.07;37.28;98686.88;5094415;28;20170;-58
2022/09/24 09:26:17;;;;;;;1.95;1.85;;;;;;;19.15;37.47;98690.41;5094122;28;20322;-58
2022/09/24 09:28:44;;;;;;;3.80;2.50;;;;;;;19.26;37.85;98681.50;5092873;28;20180;-58
2022/09/24 09:31:09;;;;;;;3.08;2.08;;;;;;;19.33;37.02;98679.91;5094487;28;20207;-58
2022/09/24 09:33:52;;;;;;;2.85;1.90;;;;;;;19.38;37.41;98681.09;5093877;28;20561;-58
2022/09/24 09:36:52;;;;;;;2.85;1.80;;;;;;;19.46;36.18;98672.47;5094089;28;20387;-58
2022/09/24 09:39:52;;;;;;;2.00;1.75;;;;;;;19.53;35.89;98673.50;5091216;28;20614;-58
2022/09/24 09:42:41;;;;;;;2.85;2.00;;;;;;;19.70;36.22;98670.00;5093996;28;20168;-58
2022/09/24 09:45:34;;;;;;;2.55;1.95;;;;;;;19.85;35.99;98665.78;5093772;28;20247;-58
2022/09/24 09:48:03;;;;;;;2.13;1.73;;;;;;;19.95;35.72;98669.13;5093916;28;20194;-58
2022/09/24 09:50:43;;;;;;;2.17;2.00;;;;;;;20.04;35.33;98660.31;5093902;28;20324;-58
2022/09/24 09:53:23;;;;;;;1.92;1.83;;;;;;;20.13;33.82;98659.38;5093747;28;20198;-58
2022/09/24 09:55:56;;;;;;;1.60;1.50;;;;;;;20.14;34.26;98668.91;5093831;28;20287;-58
2022/09/24 09:58:33;;;;;;;2.75;1.85;;;;;;;20.19;33.95;98662.22;5094175;28;20162;-58
2022/09/24 10:01:07;;;;;;;3.80;1.85;;;;;;;20.16;32.90;98672.22;5093853;28;20245;-58
2022/09/24 10:03:55;;;;;;;1.80;1.70;;;;;;;20.03;34.12;98662.13;5093820;28;20170;-58
2022/09/24 10:06:23;;;;;;;1.88;1.60;;;;;;;20.20;33.57;98668.28;5093751;28;20166;-58
2022/09/24 10:08:49;;;;;;;1.83;1.60;;;;;;;20.13;31.90;98667.28;5093682;28;20179;-58
2022/09/24 10:11:16;;;;;;;1.67;1.55;;;;;;;20.25;32.63;98666.00;5093631;28;20196;-58
2022/09/24 10:13:41;;;;;;;3.15;1.88;;;;;;;20.40;32.35;98665.22;5093059;28;20171;-58
2022/09/24 10:16:09;;;;;;;3.78;1.70;;;;;;;19.99;31.53;98654.72;5093497;28;20261;-58
2022/09/24 10:18:34;;;;;;;3.00;1.60;;;;;;;20.11;32.16;98656.91;5093129;28;20600;-58
2022/09/24 10:21:04;;;;;;;3.97;1.48;;;;;;;20.22;31.34;98650.56;5093232;28;20153;-58
2022/09/24 10:23:40;;;;;;;2.72;2.53;;;;;;;20.39;32.00;98652.25;5093405;28;20171;-58
2022/09/24 10:26:06;;;;;;;3.40;1.52;;;;;;;20.64;32.32;98643.44;5093401;28;20541;-58
2022/09/24 10:31:27;;;;;;;3.00;1.65;;;;;;;20.87;31.11;98637.34;5093351;28;20217;-58
2022/09/24 10:33:57;;;;;;;1.88;1.77;;;;;;;21.06;30.79;98641.50;5092932;28;20579;-58
2022/09/24 10:36:31;;;;;;;2.55;1.90;;;;;;;21.41;30.91;98635.88;5092814;28;20700;-58
2022/09/24 10:39:15;;;;;;;1.63;1.52;;;;;;;21.71;30.71;98632.53;5092935;28;20176;-58
2022/09/24 10:41:51;;;;;;;5.38;1.70;;;;;;;21.97;30.33;98633.13;5092873;28;20172;-58
2022/09/24 10:44:19;;;;;;;1.52;1.42;;;;;;;22.16;29.93;98637.97;5093119;28;20234;-58
2022/09/24 10:46:58;;;;;;;2.83;1.77;;;;;;;22.35;29.78;98634.91;5092985;28;20241;-58
2022/09/24 10:49:32;;;;;;;1.67;1.58;;;;;;;22.52;28.39;98629.41;5092702;28;20152;-58
2022/09/24 10:52:31;;;;;;;2.33;1.73;;;;;;;22.45;27.89;98623.19;5092645;28;20648;-58
2022/09/24 10:55:25;;;;;;;4.03;1.70;;;;;;;22.27;28.04;98629.69;5092700;28;20171;-58
2022/09/24 10:58:21;;;;;;;2.42;1.77;;;;;;;22.07;27.79;98628.47;5092829;28;20215;-58
2022/09/24 11:01:05;;;;;;;1.67;1.58;;;;;;;22.32;28.55;98622.09;5092734;28;20164;-58
2022/09/24 11:03:41;;;;;;;2.40;1.77;;;;;;;22.45;27.81;98611.81;5092807;28;20182;-58
2022/09/24 11:06:06;;;;;;;2.10;1.67;;;;;;;22.58;27.47;98617.34;5092705;28;20167;-58
2022/09/24 11:08:38;;;;;;;2.85;1.70;;;;;;;22.63;27.69;98615.00;5092389;28;20187;-58
2022/09/24 11:11:18;;;;;;;2.75;2.55;;;;;;;22.50;28.03;98607.66;5092385;28;20207;-58
2022/09/24 11:13:57;;;;;;;13.05;6.53;;;;;;;22.55;28.06;98609.78;5092352;28;20163;-58
2022/09/24 11:16:53;;;;;;;13.68;5.85;;;;;;;22.78;28.60;98610.59;5092401;28;20195;-58
2022/09/24 11:19:57;;;;;;;2.13;1.90;;;;;;;23.01;27.94;98614.84;5091070;28;20258;-58
2022/09/24 11:22:45;;;;;;;5.53;1.98;;;;;;;23.03;27.44;98606.75;5092483;28;20594;-58
2022/09/24 11:25:17;;;;;;;4.57;2.88;;;;;;;22.92;27.70;98599.28;5091489;28;20229;-58
2022/09/24 11:27:54;;;;;;;1.83;1.48;;;;;;;22.89;27.63;98599.63;5092647;28;20170;-58
2022/09/24 11:30:29;;;;;;;5.70;3.47;;;;;;;23.02;28.28;98602.50;5092096;28;20201;-58
2022/09/24 11:33:35;;;;;;;2.53;2.13;;;;;;;22.97;27.49;98602.19;5092282;28;20190;-58
2022/09/24 11:36:28;;;;;;;3.60;1.85;;;;;;;22.93;26.64;98596.47;5092132;28;20665;-58
2022/09/24 11:39:02;;;;;;;13.52;6.53;;;;;;;22.82;27.69;98606.59;5092080;28;20159;-57
2022/09/24 11:41:56;;;;;;;2.25;1.50;;;;;;;22.91;26.65;98595.78;5092126;28;20152;-58
2022/09/24 11:45:15;;;;;;;1.77;1.67;;;;;;;23.04;27.44;98584.66;5092310;28;20175;-58
2022/09/24 11:47:46;;;;;;;12.07;5.28;;;;;;;23.11;27.50;98594.31;5064415;28;20249;-58
2022/09/24 11:50:53;;;;;;;2.00;1.90;;;;;;;22.90;27.28;98598.63;5091812;28;20203;-58
2022/09/24 11:53:41;;;;;;;4.63;1.90;;;;;;;23.17;27.63;98596.28;5086118;28;20195;-58
2022/09/24 11:56:17;;;;;;;2.70;1.50;;;;;;;23.32;26.82;98591.00;5092007;28;20180;-58
2022/09/24 11:59:10;;;;;;;2.25;1.58;;;;;;;23.27;26.15;98585.44;5092011;28;20155;-58
2022/09/24 12:01:39;;;;;;;2.10;2.00;;;;;;;23.26;27.49;98568.78;5092027;28;20160;-59